sensor_id;sensor_type;location;lat;lon;timestamp;P1;durP1;ratioP1;P2;durP2;ratioP2
18899;SDS011;9582;52.018;6.306;2022-12-17T00:01:42;55.70;;;27.67;;
18899;SDS011;9582;52.018;6.306;2022-12-17T00:04:26;58.33;;;28.90;;
18899;SDS011;9582;52.018;6.306;2022-12-17T00:07:13;60.27;;;28.50;;
18899;SDS011;9582;52.018;6.306;2022-12-17T00:10:00;62.13;;;29.50;;
18899;SDS011;9582;52.018;6.306;2022-12-17T00:12:45;56.93;;;27.40;;
18899;SDS011;9582;52.018;6.306;2022-12-17T00:15:30;50.33;;;26.83;;
18899;SDS011;9582;52.018;6.306;2022-12-17T00:18:15;59.83;;;28.50;;
18899;SDS011;9582;52.018;6.306;2022-12-17T00:20:59;56.00;;;28.73;;
18899;SDS011;9582;52.018;6.306;2022-12-17T00:23:44;62.23;;;28.70;;
18899;SDS011;9582;52.018;6.306;2022-12-17T00:26:30;56.87;;;28.20;;
18899;SDS011;9582;52.018;6.306;2022-12-17T00:29:15;59.50;;;29.43;;
18899;SDS011;9582;52.018;6.306;2022-12-17T00:31:59;60.73;;;29.57;;
18899;SDS011;9582;52.018;6.306;2022-12-17T00:34:44;58.50;;;28.20;;
18899;SDS011;9582;52.018;6.306;2022-12-17T00:37:28;55.10;;;25.77;;
18899;SDS011;9582;52.018;6.306;2022-12-17T00:40:12;64.03;;;30.27;;
18899;SDS011;9582;52.018;6.306;2022-12-17T00:43:01;60.33;;;28.60;;
18899;SDS011;9582;52.018;6.306;2022-12-17T00:45:48;59.70;;;30.60;;
18899;SDS011;9582;52.018;6.306;2022-12-17T00:48:32;62.47;;;29.43;;
18899;SDS011;9582;52.018;6.306;2022-12-17T00:51:17;66.30;;;30.07;;
18899;SDS011;9582;52.018;6.306;2022-12-17T00:54:01;63.47;;;29.57;;
18899;SDS011;9582;52.018;6.306;2022-12-17T00:56:47;61.43;;;29.10;;
18899;SDS011;9582;52.018;6.306;2022-12-17T00:59:32;62.53;;;29.53;;
18899;SDS011;9582;52.018;6.306;2022-12-17T01:02:16;62.27;;;30.03;;
18899;SDS011;9582;52.018;6.306;2022-12-17T01:05:01;58.67;;;29.23;;
18899;SDS011;9582;52.018;6.306;2022-12-17T01:07:45;66.37;;;29.73;;
18899;SDS011;9582;52.018;6.306;2022-12-17T01:10:43;55.27;;;26.23;;
18899;SDS011;9582;52.018;6.306;2022-12-17T01:13:27;64.70;;;28.33;;
18899;SDS011;9582;52.018;6.306;2022-12-17T01:16:13;61.47;;;28.10;;
18899;SDS011;9582;52.018;6.306;2022-12-17T01:18:58;63.03;;;29.23;;
18899;SDS011;9582;52.018;6.306;2022-12-17T01:21:43;64.57;;;28.27;;
18899;SDS011;9582;52.018;6.306;2022-12-17T01:24:27;64.67;;;27.77;;
18899;SDS011;9582;52.018;6.306;2022-12-17T01:27:11;70.63;;;29.73;;
18899;SDS011;9582;52.018;6.306;2022-12-17T01:29:55;67.10;;;29.37;;
18899;SDS011;9582;52.018;6.306;2022-12-17T01:32:42;73.40;;;29.53;;
18899;SDS011;9582;52.018;6.306;2022-12-17T01:35:27;74.80;;;29.27;;
18899;SDS011;9582;52.018;6.306;2022-12-17T01:38:11;82.43;;;31.13;;
18899;SDS011;9582;52.018;6.306;2022-12-17T01:40:56;84.53;;;31.43;;
18899;SDS011;9582;52.018;6.306;2022-12-17T01:43:40;84.00;;;31.37;;
18899;SDS011;9582;52.018;6.306;2022-12-17T01:46:25;76.63;;;30.37;;
18899;SDS011;9582;52.018;6.306;2022-12-17T01:49:14;79.33;;;29.70;;
18899;SDS011;9582;52.018;6.306;2022-12-17T01:52:00;69.43;;;27.10;;
18899;SDS011;9582;52.018;6.306;2022-12-17T01:54:45;78.83;;;29.53;;
18899;SDS011;9582;52.018;6.306;2022-12-17T01:57:30;71.93;;;28.77;;
18899;SDS011;9582;52.018;6.306;2022-12-17T02:00:15;78.37;;;28.77;;
18899;SDS011;9582;52.018;6.306;2022-12-17T02:03:01;82.47;;;31.40;;
18899;SDS011;9582;52.018;6.306;2022-12-17T02:05:51;85.63;;;31.50;;
18899;SDS011;9582;52.018;6.306;2022-12-17T02:08:46;75.00;;;26.63;;
18899;SDS011;9582;52.018;6.306;2022-12-17T02:11:39;78.87;;;28.33;;
18899;SDS011;9582;52.018;6.306;2022-12-17T02:14:33;76.93;;;28.97;;
18899;SDS011;9582;52.018;6.306;2022-12-17T02:17:25;75.20;;;28.33;;
18899;SDS011;9582;52.018;6.306;2022-12-17T02:20:18;87.90;;;28.93;;
18899;SDS011;9582;52.018;6.306;2022-12-17T02:23:19;77.93;;;28.50;;
18899;SDS011;9582;52.018;6.306;2022-12-17T02:26:15;78.77;;;28.13;;
18899;SDS011;9582;52.018;6.306;2022-12-17T02:29:05;81.83;;;28.67;;
18899;SDS011;9582;52.018;6.306;2022-12-17T02:31:51;76.43;;;28.17;;
18899;SDS011;9582;52.018;6.306;2022-12-17T02:34:44;84.70;;;30.10;;
18899;SDS011;9582;52.018;6.306;2022-12-17T02:37:29;74.67;;;29.97;;
18899;SDS011;9582;52.018;6.306;2022-12-17T02:40:14;64.87;;;23.03;;
18899;SDS011;9582;52.018;6.306;2022-12-17T02:42:59;72.53;;;28.13;;
18899;SDS011;9582;52.018;6.306;2022-12-17T02:45:47;68.57;;;26.57;;
18899;SDS011;9582;52.018;6.306;2022-12-17T02:48:33;70.40;;;26.80;;
18899;SDS011;9582;52.018;6.306;2022-12-17T02:51:17;63.70;;;25.90;;
18899;SDS011;9582;52.018;6.306;2022-12-17T02:54:02;68.73;;;28.43;;
18899;SDS011;9582;52.018;6.306;2022-12-17T02:56:46;68.30;;;28.07;;
18899;SDS011;9582;52.018;6.306;2022-12-17T02:59:30;66.77;;;27.37;;
18899;SDS011;9582;52.018;6.306;2022-12-17T03:02:16;64.33;;;25.93;;
18899;SDS011;9582;52.018;6.306;2022-12-17T03:05:00;73.70;;;28.97;;
18899;SDS011;9582;52.018;6.306;2022-12-17T03:07:44;69.30;;;27.53;;
18899;SDS011;9582;52.018;6.306;2022-12-17T03:10:28;79.20;;;28.60;;
18899;SDS011;9582;52.018;6.306;2022-12-17T03:13:20;74.57;;;30.97;;
18899;SDS011;9582;52.018;6.306;2022-12-17T03:16:09;69.13;;;27.20;;
18899;SDS011;9582;52.018;6.306;2022-12-17T03:18:55;75.23;;;27.77;;
18899;SDS011;9582;52.018;6.306;2022-12-17T03:21:39;73.83;;;28.37;;
18899;SDS011;9582;52.018;6.306;2022-12-17T03:24:23;66.83;;;27.03;;
18899;SDS011;9582;52.018;6.306;2022-12-17T03:27:03;66.90;;;27.03;;
18899;SDS011;9582;52.018;6.306;2022-12-17T03:29:47;75.60;;;29.70;;
18899;SDS011;9582;52.018;6.306;2022-12-17T03:32:31;83.80;;;29.27;;
18899;SDS011;9582;52.018;6.306;2022-12-17T03:35:17;79.87;;;30.53;;
18899;SDS011;9582;52.018;6.306;2022-12-17T03:38:16;68.20;;;27.43;;
18899;SDS011;9582;52.018;6.306;2022-12-17T03:41:00;79.43;;;30.13;;
18899;SDS011;9582;52.018;6.306;2022-12-17T03:43:44;79.57;;;29.43;;
18899;SDS011;9582;52.018;6.306;2022-12-17T03:46:28;73.50;;;29.13;;
18899;SDS011;9582;52.018;6.306;2022-12-17T03:49:13;70.00;;;28.50;;
18899;SDS011;9582;52.018;6.306;2022-12-17T03:51:58;78.30;;;28.87;;
18899;SDS011;9582;52.018;6.306;2022-12-17T03:54:42;70.10;;;28.83;;
18899;SDS011;9582;52.018;6.306;2022-12-17T03:57:27;71.40;;;29.30;;
18899;SDS011;9582;52.018;6.306;2022-12-17T04:00:11;67.10;;;27.00;;
18899;SDS011;9582;52.018;6.306;2022-12-17T04:02:56;71.10;;;27.97;;
18899;SDS011;9582;52.018;6.306;2022-12-17T04:05:40;68.40;;;27.97;;
18899;SDS011;9582;52.018;6.306;2022-12-17T04:08:25;73.10;;;28.60;;
18899;SDS011;9582;52.018;6.306;2022-12-17T04:11:09;65.47;;;27.97;;
18899;SDS011;9582;52.018;6.306;2022-12-17T04:13:53;67.53;;;28.27;;
18899;SDS011;9582;52.018;6.306;2022-12-17T04:16:38;67.30;;;27.40;;
18899;SDS011;9582;52.018;6.306;2022-12-17T04:19:22;61.80;;;25.43;;
18899;SDS011;9582;52.018;6.306;2022-12-17T04:22:06;64.47;;;27.33;;
18899;SDS011;9582;52.018;6.306;2022-12-17T04:24:52;64.53;;;28.50;;
18899;SDS011;9582;52.018;6.306;2022-12-17T04:27:36;67.30;;;27.80;;
18899;SDS011;9582;52.018;6.306;2022-12-17T04:30:20;62.77;;;27.50;;
18899;SDS011;9582;52.018;6.306;2022-12-17T04:33:05;69.77;;;29.33;;
18899;SDS011;9582;52.018;6.306;2022-12-17T04:35:49;67.93;;;30.63;;
18899;SDS011;9582;52.018;6.306;2022-12-17T04:38:33;68.30;;;30.73;;
18899;SDS011;9582;52.018;6.306;2022-12-17T04:41:18;69.63;;;31.30;;
18899;SDS011;9582;52.018;6.306;2022-12-17T04:44:02;65.00;;;29.67;;
18899;SDS011;9582;52.018;6.306;2022-12-17T04:46:49;68.73;;;29.90;;
18899;SDS011;9582;52.018;6.306;2022-12-17T04:49:33;66.50;;;30.17;;
18899;SDS011;9582;52.018;6.306;2022-12-17T04:52:17;69.53;;;30.63;;
18899;SDS011;9582;52.018;6.306;2022-12-17T04:55:01;71.40;;;31.00;;
18899;SDS011;9582;52.018;6.306;2022-12-17T04:57:47;71.67;;;31.00;;
18899;SDS011;9582;52.018;6.306;2022-12-17T05:00:36;66.53;;;31.43;;
18899;SDS011;9582;52.018;6.306;2022-12-17T05:03:20;73.53;;;30.47;;
18899;SDS011;9582;52.018;6.306;2022-12-17T05:06:05;73.50;;;32.37;;
18899;SDS011;9582;52.018;6.306;2022-12-17T05:08:49;73.27;;;31.80;;
18899;SDS011;9582;52.018;6.306;2022-12-17T05:11:33;73.37;;;32.33;;
18899;SDS011;9582;52.018;6.306;2022-12-17T05:14:19;65.57;;;30.93;;
18899;SDS011;9582;52.018;6.306;2022-12-17T05:17:03;65.07;;;30.67;;
18899;SDS011;9582;52.018;6.306;2022-12-17T05:19:47;66.03;;;31.03;;
18899;SDS011;9582;52.018;6.306;2022-12-17T05:22:31;67.83;;;31.47;;
18899;SDS011;9582;52.018;6.306;2022-12-17T05:25:16;62.97;;;28.90;;
18899;SDS011;9582;52.018;6.306;2022-12-17T05:28:00;65.63;;;30.67;;
18899;SDS011;9582;52.018;6.306;2022-12-17T05:31:00;70.40;;;32.50;;
18899;SDS011;9582;52.018;6.306;2022-12-17T05:33:44;67.43;;;31.37;;
18899;SDS011;9582;52.018;6.306;2022-12-17T05:36:28;63.63;;;31.67;;
18899;SDS011;9582;52.018;6.306;2022-12-17T05:39:12;65.00;;;30.20;;
18899;SDS011;9582;52.018;6.306;2022-12-17T05:41:56;64.77;;;31.87;;
18899;SDS011;9582;52.018;6.306;2022-12-17T05:44:40;68.97;;;32.07;;
18899;SDS011;9582;52.018;6.306;2022-12-17T05:47:26;63.43;;;30.77;;
18899;SDS011;9582;52.018;6.306;2022-12-17T05:50:10;65.97;;;31.77;;
18899;SDS011;9582;52.018;6.306;2022-12-17T05:52:59;62.90;;;31.13;;
18899;SDS011;9582;52.018;6.306;2022-12-17T05:55:46;67.27;;;30.77;;
18899;SDS011;9582;52.018;6.306;2022-12-17T05:58:31;71.50;;;32.97;;
18899;SDS011;9582;52.018;6.306;2022-12-17T06:01:15;63.03;;;31.43;;
18899;SDS011;9582;52.018;6.306;2022-12-17T06:04:01;61.53;;;29.70;;
18899;SDS011;9582;52.018;6.306;2022-12-17T06:06:45;67.13;;;31.10;;
18899;SDS011;9582;52.018;6.306;2022-12-17T06:09:30;67.80;;;32.83;;
18899;SDS011;9582;52.018;6.306;2022-12-17T06:12:15;69.83;;;30.73;;
18899;SDS011;9582;52.018;6.306;2022-12-17T06:14:59;62.70;;;31.20;;
18899;SDS011;9582;52.018;6.306;2022-12-17T06:17:50;66.77;;;32.43;;
18899;SDS011;9582;52.018;6.306;2022-12-17T06:20:36;63.30;;;29.90;;
18899;SDS011;9582;52.018;6.306;2022-12-17T06:23:21;68.43;;;30.47;;
18899;SDS011;9582;52.018;6.306;2022-12-17T06:26:05;60.10;;;30.50;;
18899;SDS011;9582;52.018;6.306;2022-12-17T06:28:50;67.33;;;30.03;;
18899;SDS011;9582;52.018;6.306;2022-12-17T06:31:33;67.10;;;32.73;;
18899;SDS011;9582;52.018;6.306;2022-12-17T06:34:17;66.80;;;30.97;;
18899;SDS011;9582;52.018;6.306;2022-12-17T06:37:03;59.37;;;30.67;;
18899;SDS011;9582;52.018;6.306;2022-12-17T06:39:47;67.10;;;32.53;;
18899;SDS011;9582;52.018;6.306;2022-12-17T06:42:31;62.57;;;30.87;;
18899;SDS011;9582;52.018;6.306;2022-12-17T06:45:15;68.67;;;32.70;;
18899;SDS011;9582;52.018;6.306;2022-12-17T06:48:00;70.33;;;33.20;;
18899;SDS011;9582;52.018;6.306;2022-12-17T06:50:44;69.10;;;31.77;;
18899;SDS011;9582;52.018;6.306;2022-12-17T06:53:30;65.20;;;32.23;;
18899;SDS011;9582;52.018;6.306;2022-12-17T06:56:14;70.10;;;32.70;;
18899;SDS011;9582;52.018;6.306;2022-12-17T06:58:58;67.93;;;32.57;;
18899;SDS011;9582;52.018;6.306;2022-12-17T07:01:42;67.27;;;31.60;;
18899;SDS011;9582;52.018;6.306;2022-12-17T07:04:26;64.93;;;31.67;;
18899;SDS011;9582;52.018;6.306;2022-12-17T07:07:10;69.17;;;31.97;;
18899;SDS011;9582;52.018;6.306;2022-12-17T07:09:56;67.30;;;31.53;;
18899;SDS011;9582;52.018;6.306;2022-12-17T07:12:40;66.50;;;32.30;;
18899;SDS011;9582;52.018;6.306;2022-12-17T07:15:24;67.30;;;31.57;;
18899;SDS011;9582;52.018;6.306;2022-12-17T07:18:09;65.43;;;31.43;;
18899;SDS011;9582;52.018;6.306;2022-12-17T07:20:53;73.93;;;32.50;;
18899;SDS011;9582;52.018;6.306;2022-12-17T07:23:37;69.17;;;33.47;;
18899;SDS011;9582;52.018;6.306;2022-12-17T07:26:23;72.77;;;34.40;;
18899;SDS011;9582;52.018;6.306;2022-12-17T07:29:07;70.70;;;33.47;;
18899;SDS011;9582;52.018;6.306;2022-12-17T07:31:51;73.60;;;34.70;;
18899;SDS011;9582;52.018;6.306;2022-12-17T07:34:36;76.17;;;34.90;;
18899;SDS011;9582;52.018;6.306;2022-12-17T07:37:20;71.23;;;34.50;;
18899;SDS011;9582;52.018;6.306;2022-12-17T07:40:05;73.23;;;33.50;;
18899;SDS011;9582;52.018;6.306;2022-12-17T07:42:51;72.07;;;34.37;;
18899;SDS011;9582;52.018;6.306;2022-12-17T07:45:35;74.50;;;34.20;;
18899;SDS011;9582;52.018;6.306;2022-12-17T07:48:20;78.20;;;35.97;;
18899;SDS011;9582;52.018;6.306;2022-12-17T07:51:04;75.57;;;34.10;;
18899;SDS011;9582;52.018;6.306;2022-12-17T07:53:48;76.83;;;35.90;;
18899;SDS011;9582;52.018;6.306;2022-12-17T07:56:33;69.27;;;34.37;;
18899;SDS011;9582;52.018;6.306;2022-12-17T07:59:18;77.87;;;34.53;;
18899;SDS011;9582;52.018;6.306;2022-12-17T08:02:02;70.37;;;32.30;;
18899;SDS011;9582;52.018;6.306;2022-12-17T08:04:47;72.50;;;34.03;;
18899;SDS011;9582;52.018;6.306;2022-12-17T08:07:31;76.17;;;34.03;;
18899;SDS011;9582;52.018;6.306;2022-12-17T08:10:15;74.57;;;35.40;;
18899;SDS011;9582;52.018;6.306;2022-12-17T08:13:14;73.43;;;34.50;;
18899;SDS011;9582;52.018;6.306;2022-12-17T08:15:59;72.27;;;32.87;;
18899;SDS011;9582;52.018;6.306;2022-12-17T08:18:58;68.67;;;31.53;;
18899;SDS011;9582;52.018;6.306;2022-12-17T08:21:42;69.83;;;33.73;;
18899;SDS011;9582;52.018;6.306;2022-12-17T08:24:26;74.43;;;35.50;;
18899;SDS011;9582;52.018;6.306;2022-12-17T08:27:10;76.20;;;32.10;;
18899;SDS011;9582;52.018;6.306;2022-12-17T08:29:54;71.57;;;32.53;;
18899;SDS011;9582;52.018;6.306;2022-12-17T08:32:39;72.77;;;32.27;;
18899;SDS011;9582;52.018;6.306;2022-12-17T08:35:24;74.50;;;31.37;;
18899;SDS011;9582;52.018;6.306;2022-12-17T08:38:07;72.20;;;33.67;;
18899;SDS011;9582;52.018;6.306;2022-12-17T08:40:52;69.87;;;30.97;;
18899;SDS011;9582;52.018;6.306;2022-12-17T08:43:41;78.40;;;34.50;;
18899;SDS011;9582;52.018;6.306;2022-12-17T08:46:26;74.30;;;32.67;;
18899;SDS011;9582;52.018;6.306;2022-12-17T08:49:11;75.37;;;33.93;;
18899;SDS011;9582;52.018;6.306;2022-12-17T08:51:55;78.27;;;32.97;;
18899;SDS011;9582;52.018;6.306;2022-12-17T08:54:39;67.93;;;32.80;;
18899;SDS011;9582;52.018;6.306;2022-12-17T08:57:23;71.97;;;32.67;;
18899;SDS011;9582;52.018;6.306;2022-12-17T09:00:08;74.30;;;32.23;;
18899;SDS011;9582;52.018;6.306;2022-12-17T09:02:55;71.03;;;32.03;;
18899;SDS011;9582;52.018;6.306;2022-12-17T09:05:40;74.43;;;34.67;;
18899;SDS011;9582;52.018;6.306;2022-12-17T09:08:25;73.80;;;32.87;;
18899;SDS011;9582;52.018;6.306;2022-12-17T09:11:09;75.30;;;33.03;;
18899;SDS011;9582;52.018;6.306;2022-12-17T09:13:53;75.13;;;31.73;;
18899;SDS011;9582;52.018;6.306;2022-12-17T09:16:38;76.03;;;33.13;;
18899;SDS011;9582;52.018;6.306;2022-12-17T09:19:22;75.17;;;33.10;;
18899;SDS011;9582;52.018;6.306;2022-12-17T09:22:07;71.23;;;32.67;;
18899;SDS011;9582;52.018;6.306;2022-12-17T09:24:52;72.33;;;34.00;;
18899;SDS011;9582;52.018;6.306;2022-12-17T09:27:36;66.97;;;31.43;;
18899;SDS011;9582;52.018;6.306;2022-12-17T09:30:20;64.73;;;32.17;;
18899;SDS011;9582;52.018;6.306;2022-12-17T09:33:05;70.97;;;30.50;;
18899;SDS011;9582;52.018;6.306;2022-12-17T09:35:49;74.10;;;41.35;;
18899;SDS011;9582;52.018;6.306;2022-12-17T09:38:34;79.05;;;43.40;;
18899;SDS011;9582;52.018;6.306;2022-12-17T09:41:20;69.67;;;33.33;;
18899;SDS011;9582;52.018;6.306;2022-12-17T09:44:13;64.70;;;32.00;;
18899;SDS011;9582;52.018;6.306;2022-12-17T09:47:06;75.85;;;41.90;;
18899;SDS011;9582;52.018;6.306;2022-12-17T09:50:03;78.40;;;43.40;;
18899;SDS011;9582;52.018;6.306;2022-12-17T09:52:51;65.03;;;31.63;;
18899;SDS011;9582;52.018;6.306;2022-12-17T09:55:38;64.43;;;29.10;;
18899;SDS011;9582;52.018;6.306;2022-12-17T09:58:27;63.37;;;29.43;;
18899;SDS011;9582;52.018;6.306;2022-12-17T10:01:24;60.77;;;28.80;;
18899;SDS011;9582;52.018;6.306;2022-12-17T10:04:11;65.80;;;29.17;;
18899;SDS011;9582;52.018;6.306;2022-12-17T10:06:59;63.37;;;30.90;;
18899;SDS011;9582;52.018;6.306;2022-12-17T10:09:43;66.13;;;29.07;;
18899;SDS011;9582;52.018;6.306;2022-12-17T10:12:33;71.37;;;29.80;;
18899;SDS011;9582;52.018;6.306;2022-12-17T10:15:17;66.23;;;28.77;;
18899;SDS011;9582;52.018;6.306;2022-12-17T10:18:03;65.00;;;30.90;;
18899;SDS011;9582;52.018;6.306;2022-12-17T10:20:51;69.30;;;30.60;;
18899;SDS011;9582;52.018;6.306;2022-12-17T10:23:40;63.03;;;29.73;;
18899;SDS011;9582;52.018;6.306;2022-12-17T10:26:25;69.27;;;30.57;;
18899;SDS011;9582;52.018;6.306;2022-12-17T10:29:13;70.90;;;30.10;;
18899;SDS011;9582;52.018;6.306;2022-12-17T10:31:59;60.90;;;27.93;;
18899;SDS011;9582;52.018;6.306;2022-12-17T10:35:06;64.17;;;29.73;;
18899;SDS011;9582;52.018;6.306;2022-12-17T10:37:52;66.20;;;29.23;;
18899;SDS011;9582;52.018;6.306;2022-12-17T10:40:45;60.93;;;26.57;;
18899;SDS011;9582;52.018;6.306;2022-12-17T10:43:30;72.30;;;29.90;;
18899;SDS011;9582;52.018;6.306;2022-12-17T10:46:26;67.33;;;28.60;;
18899;SDS011;9582;52.018;6.306;2022-12-17T10:49:12;67.77;;;28.53;;
18899;SDS011;9582;52.018;6.306;2022-12-17T10:51:58;66.13;;;29.37;;
18899;SDS011;9582;52.018;6.306;2022-12-17T10:54:53;61.73;;;27.33;;
18899;SDS011;9582;52.018;6.306;2022-12-17T10:57:39;61.83;;;28.83;;
18899;SDS011;9582;52.018;6.306;2022-12-17T11:00:24;71.37;;;29.70;;
18899;SDS011;9582;52.018;6.306;2022-12-17T11:03:32;72.73;;;29.33;;
18899;SDS011;9582;52.018;6.306;2022-12-17T11:06:23;73.63;;;30.37;;
18899;SDS011;9582;52.018;6.306;2022-12-17T11:09:16;65.70;;;28.97;;
18899;SDS011;9582;52.018;6.306;2022-12-17T11:12:09;65.60;;;28.23;;
18899;SDS011;9582;52.018;6.306;2022-12-17T11:14:56;67.97;;;29.43;;
18899;SDS011;9582;52.018;6.306;2022-12-17T11:17:43;67.80;;;29.00;;
18899;SDS011;9582;52.018;6.306;2022-12-17T11:20:33;69.73;;;29.53;;
18899;SDS011;9582;52.018;6.306;2022-12-17T11:23:28;68.07;;;29.37;;
18899;SDS011;9582;52.018;6.306;2022-12-17T11:26:15;67.40;;;29.73;;
18899;SDS011;9582;52.018;6.306;2022-12-17T11:29:02;65.63;;;29.87;;
18899;SDS011;9582;52.018;6.306;2022-12-17T11:31:50;70.73;;;29.43;;
18899;SDS011;9582;52.018;6.306;2022-12-17T11:34:56;61.53;;;26.93;;
18899;SDS011;9582;52.018;6.306;2022-12-17T11:37:49;58.87;;;25.13;;
18899;SDS011;9582;52.018;6.306;2022-12-17T11:40:41;61.37;;;26.60;;
18899;SDS011;9582;52.018;6.306;2022-12-17T11:43:30;61.53;;;26.33;;
18899;SDS011;9582;52.018;6.306;2022-12-17T11:46:22;62.30;;;26.43;;
18899;SDS011;9582;52.018;6.306;2022-12-17T11:49:20;63.60;;;27.47;;
18899;SDS011;9582;52.018;6.306;2022-12-17T11:52:16;65.17;;;27.77;;
18899;SDS011;9582;52.018;6.306;2022-12-17T11:55:14;64.70;;;27.67;;
18899;SDS011;9582;52.018;6.306;2022-12-17T11:58:04;66.17;;;27.40;;
18899;SDS011;9582;52.018;6.306;2022-12-17T12:00:57;69.07;;;28.80;;
18899;SDS011;9582;52.018;6.306;2022-12-17T12:03:50;60.93;;;27.60;;
18899;SDS011;9582;52.018;6.306;2022-12-17T12:06:54;66.60;;;28.33;;
18899;SDS011;9582;52.018;6.306;2022-12-17T12:09:51;67.87;;;29.07;;
18899;SDS011;9582;52.018;6.306;2022-12-17T12:12:45;61.67;;;27.27;;
18899;SDS011;9582;52.018;6.306;2022-12-17T12:15:40;63.70;;;25.87;;
18899;SDS011;9582;52.018;6.306;2022-12-17T12:18:34;57.60;;;25.87;;
18899;SDS011;9582;52.018;6.306;2022-12-17T12:27:56;59.83;;;24.80;;
18899;SDS011;9582;52.018;6.306;2022-12-17T12:30:49;57.33;;;26.17;;
18899;SDS011;9582;52.018;6.306;2022-12-17T12:33:44;69.33;;;27.87;;
18899;SDS011;9582;52.018;6.306;2022-12-17T12:36:34;62.97;;;26.73;;
18899;SDS011;9582;52.018;6.306;2022-12-17T12:39:21;65.90;;;28.40;;
18899;SDS011;9582;52.018;6.306;2022-12-17T12:42:12;66.70;;;29.07;;
18899;SDS011;9582;52.018;6.306;2022-12-17T12:45:08;63.83;;;26.70;;
18899;SDS011;9582;52.018;6.306;2022-12-17T12:48:10;59.70;;;27.03;;
18899;SDS011;9582;52.018;6.306;2022-12-17T12:51:08;73.03;;;28.50;;
18899;SDS011;9582;52.018;6.306;2022-12-17T12:53:56;63.17;;;27.40;;
18899;SDS011;9582;52.018;6.306;2022-12-17T12:56:40;64.83;;;28.33;;
18899;SDS011;9582;52.018;6.306;2022-12-17T12:59:25;57.10;;;26.17;;
18899;SDS011;9582;52.018;6.306;2022-12-17T13:02:23;61.43;;;26.97;;
18899;SDS011;9582;52.018;6.306;2022-12-17T13:05:20;64.57;;;27.43;;
18899;SDS011;9582;52.018;6.306;2022-12-17T13:08:00;61.43;;;26.83;;
18899;SDS011;9582;52.018;6.306;2022-12-17T13:10:42;60.03;;;27.10;;
18899;SDS011;9582;52.018;6.306;2022-12-17T13:13:09;59.77;;;26.67;;
18899;SDS011;9582;52.018;6.306;2022-12-17T13:15:42;57.27;;;27.17;;
18899;SDS011;9582;52.018;6.306;2022-12-17T13:18:20;55.37;;;26.30;;
18899;SDS011;9582;52.018;6.306;2022-12-17T13:20:56;55.70;;;24.97;;
18899;SDS011;9582;52.018;6.306;2022-12-17T13:23:29;54.47;;;25.10;;
18899;SDS011;9582;52.018;6.306;2022-12-17T13:26:14;58.27;;;26.27;;
18899;SDS011;9582;52.018;6.306;2022-12-17T13:28:47;53.27;;;24.40;;
18899;SDS011;9582;52.018;6.306;2022-12-17T13:31:25;53.17;;;25.27;;
18899;SDS011;9582;52.018;6.306;2022-12-17T13:33:56;53.20;;;25.93;;
18899;SDS011;9582;52.018;6.306;2022-12-17T13:36:29;56.90;;;26.80;;
18899;SDS011;9582;52.018;6.306;2022-12-17T13:39:05;58.93;;;27.50;;
18899;SDS011;9582;52.018;6.306;2022-12-17T13:41:39;55.83;;;26.63;;
18899;SDS011;9582;52.018;6.306;2022-12-17T13:44:15;56.80;;;26.17;;
18899;SDS011;9582;52.018;6.306;2022-12-17T13:46:45;53.80;;;26.87;;
18899;SDS011;9582;52.018;6.306;2022-12-17T13:49:16;53.23;;;26.90;;
18899;SDS011;9582;52.018;6.306;2022-12-17T13:51:44;56.73;;;28.37;;
18899;SDS011;9582;52.018;6.306;2022-12-17T13:54:13;56.00;;;28.97;;
18899;SDS011;9582;52.018;6.306;2022-12-17T13:56:42;57.63;;;28.23;;
18899;SDS011;9582;52.018;6.306;2022-12-17T13:59:14;55.63;;;28.93;;
18899;SDS011;9582;52.018;6.306;2022-12-17T14:01:43;59.60;;;28.13;;
18899;SDS011;9582;52.018;6.306;2022-12-17T14:04:18;48.23;;;23.73;;
18899;SDS011;9582;52.018;6.306;2022-12-17T14:06:46;56.50;;;28.00;;
18899;SDS011;9582;52.018;6.306;2022-12-17T14:09:14;53.90;;;25.50;;
18899;SDS011;9582;52.018;6.306;2022-12-17T14:11:43;52.97;;;26.93;;
18899;SDS011;9582;52.018;6.306;2022-12-17T14:14:29;57.20;;;28.70;;
18899;SDS011;9582;52.018;6.306;2022-12-17T14:16:57;52.70;;;26.73;;
18899;SDS011;9582;52.018;6.306;2022-12-17T14:19:26;53.83;;;29.13;;
18899;SDS011;9582;52.018;6.306;2022-12-17T14:21:53;52.40;;;27.33;;
18899;SDS011;9582;52.018;6.306;2022-12-17T14:24:22;52.37;;;25.03;;
18899;SDS011;9582;52.018;6.306;2022-12-17T14:26:52;52.10;;;26.40;;
18899;SDS011;9582;52.018;6.306;2022-12-17T14:29:20;52.23;;;24.70;;
18899;SDS011;9582;52.018;6.306;2022-12-17T14:31:50;56.27;;;28.23;;
18899;SDS011;9582;52.018;6.306;2022-12-17T14:34:18;55.10;;;26.13;;
18899;SDS011;9582;52.018;6.306;2022-12-17T14:36:46;50.10;;;26.67;;
18899;SDS011;9582;52.018;6.306;2022-12-17T14:39:21;52.27;;;27.07;;
18899;SDS011;9582;52.018;6.306;2022-12-17T14:41:50;55.33;;;27.80;;
18899;SDS011;9582;52.018;6.306;2022-12-17T14:44:37;56.33;;;27.13;;
18899;SDS011;9582;52.018;6.306;2022-12-17T14:47:14;54.27;;;27.07;;
18899;SDS011;9582;52.018;6.306;2022-12-17T14:49:51;65.72;;;38.17;;
18899;SDS011;9582;52.018;6.306;2022-12-17T14:52:23;58.07;;;29.57;;
18899;SDS011;9582;52.018;6.306;2022-12-17T14:54:53;51.63;;;27.73;;
18899;SDS011;9582;52.018;6.306;2022-12-17T14:57:20;48.27;;;25.70;;
18899;SDS011;9582;52.018;6.306;2022-12-17T14:59:48;54.23;;;26.50;;
18899;SDS011;9582;52.018;6.306;2022-12-17T15:02:20;47.37;;;24.93;;
18899;SDS011;9582;52.018;6.306;2022-12-17T15:04:50;52.60;;;26.33;;
18899;SDS011;9582;52.018;6.306;2022-12-17T15:07:20;54.40;;;26.67;;
18899;SDS011;9582;52.018;6.306;2022-12-17T15:09:51;50.57;;;25.60;;
18899;SDS011;9582;52.018;6.306;2022-12-17T15:12:18;52.40;;;27.77;;
18899;SDS011;9582;52.018;6.306;2022-12-17T15:14:45;56.63;;;27.53;;
18899;SDS011;9582;52.018;6.306;2022-12-17T15:17:12;54.07;;;28.33;;
18899;SDS011;9582;52.018;6.306;2022-12-17T15:19:39;55.40;;;27.80;;
18899;SDS011;9582;52.018;6.306;2022-12-17T15:22:08;54.73;;;26.90;;
18899;SDS011;9582;52.018;6.306;2022-12-17T15:24:40;53.17;;;27.47;;
18899;SDS011;9582;52.018;6.306;2022-12-17T15:27:08;54.33;;;26.00;;
18899;SDS011;9582;52.018;6.306;2022-12-17T15:29:36;53.80;;;26.50;;
18899;SDS011;9582;52.018;6.306;2022-12-17T15:32:03;55.87;;;28.43;;
18899;SDS011;9582;52.018;6.306;2022-12-17T15:34:30;54.67;;;28.23;;
18899;SDS011;9582;52.018;6.306;2022-12-17T15:36:56;60.37;;;29.03;;
18899;SDS011;9582;52.018;6.306;2022-12-17T15:39:23;57.70;;;27.67;;
18899;SDS011;9582;52.018;6.306;2022-12-17T15:41:50;57.87;;;29.80;;
18899;SDS011;9582;52.018;6.306;2022-12-17T15:44:34;58.27;;;28.53;;
18899;SDS011;9582;52.018;6.306;2022-12-17T15:47:01;61.90;;;29.90;;
18899;SDS011;9582;52.018;6.306;2022-12-17T15:49:27;57.67;;;29.67;;
18899;SDS011;9582;52.018;6.306;2022-12-17T15:51:54;59.60;;;29.90;;
18899;SDS011;9582;52.018;6.306;2022-12-17T15:54:20;64.33;;;28.43;;
18899;SDS011;9582;52.018;6.306;2022-12-17T15:56:51;57.60;;;28.40;;
18899;SDS011;9582;52.018;6.306;2022-12-17T15:59:18;59.90;;;30.07;;
18899;SDS011;9582;52.018;6.306;2022-12-17T16:01:45;61.80;;;29.97;;
18899;SDS011;9582;52.018;6.306;2022-12-17T16:04:11;64.17;;;31.50;;
18899;SDS011;9582;52.018;6.306;2022-12-17T16:06:38;64.53;;;29.47;;
18899;SDS011;9582;52.018;6.306;2022-12-17T16:09:05;61.03;;;30.03;;
18899;SDS011;9582;52.018;6.306;2022-12-17T16:11:31;65.80;;;30.73;;
18899;SDS011;9582;52.018;6.306;2022-12-17T16:13:59;62.17;;;29.60;;
18899;SDS011;9582;52.018;6.306;2022-12-17T16:16:27;61.47;;;30.03;;